sensor_id;sensor_type;location;lat;lon;timestamp;P1;durP1;ratioP1;P2;durP2;ratioP2
18290;SDS011;9271;48.590;8.866;2022-09-27T00:00:31;1.20;;;1.20;;
18290;SDS011;9271;48.590;8.866;2022-09-27T00:02:58;1.30;;;1.20;;
18290;SDS011;9271;48.590;8.866;2022-09-27T00:05:25;1.53;;;1.10;;
18290;SDS011;9271;48.590;8.866;2022-09-27T00:07:52;1.23;;;1.20;;
18290;SDS011;9271;48.590;8.866;2022-09-27T00:10:19;1.60;;;1.30;;
18290;SDS011;9271;48.590;8.866;2022-09-27T00:12:45;1.30;;;1.20;;
18290;SDS011;9271;48.590;8.866;2022-09-27T00:15:14;2.00;;;1.40;;
18290;SDS011;9271;48.590;8.866;2022-09-27T00:17:41;1.33;;;1.20;;
18290;SDS011;9271;48.590;8.866;2022-09-27T00:20:08;1.60;;;1.20;;
18290;SDS011;9271;48.590;8.866;2022-09-27T00:22:35;1.50;;;1.10;;
18290;SDS011;9271;48.590;8.866;2022-09-27T00:25:02;2.10;;;1.13;;
18290;SDS011;9271;48.590;8.866;2022-09-27T00:27:31;1.40;;;1.30;;
18290;SDS011;9271;48.590;8.866;2022-09-27T00:29:58;1.00;;;1.00;;
18290;SDS011;9271;48.590;8.866;2022-09-27T00:32:26;1.30;;;1.10;;
18290;SDS011;9271;48.590;8.866;2022-09-27T00:34:53;1.30;;;1.20;;
18290;SDS011;9271;48.590;8.866;2022-09-27T00:37:19;1.10;;;1.10;;
18290;SDS011;9271;48.590;8.866;2022-09-27T00:39:46;1.23;;;1.00;;
18290;SDS011;9271;48.590;8.866;2022-09-27T00:42:13;1.93;;;1.30;;
18290;SDS011;9271;48.590;8.866;2022-09-27T00:44:50;1.00;;;1.00;;
18290;SDS011;9271;48.590;8.866;2022-09-27T00:47:28;1.50;;;1.20;;
18290;SDS011;9271;48.590;8.866;2022-09-27T00:49:59;0.97;;;0.97;;
18290;SDS011;9271;48.590;8.866;2022-09-27T00:52:31;1.13;;;1.13;;
18290;SDS011;9271;48.590;8.866;2022-09-27T00:55:04;1.07;;;1.07;;
18290;SDS011;9271;48.590;8.866;2022-09-27T00:57:35;1.27;;;1.17;;
18290;SDS011;9271;48.590;8.866;2022-09-27T01:00:04;0.97;;;0.93;;
18290;SDS011;9271;48.590;8.866;2022-09-27T01:02:36;1.00;;;1.00;;
18290;SDS011;9271;48.590;8.866;2022-09-27T01:05:06;1.07;;;1.07;;
18290;SDS011;9271;48.590;8.866;2022-09-27T01:07:34;0.93;;;0.90;;
18290;SDS011;9271;48.590;8.866;2022-09-27T01:10:01;1.20;;;1.10;;
18290;SDS011;9271;48.590;8.866;2022-09-27T01:12:30;1.03;;;0.93;;
18290;SDS011;9271;48.590;8.866;2022-09-27T01:15:08;0.83;;;0.83;;
18290;SDS011;9271;48.590;8.866;2022-09-27T01:17:46;1.10;;;0.93;;
18290;SDS011;9271;48.590;8.866;2022-09-27T01:20:28;0.70;;;0.70;;
18290;SDS011;9271;48.590;8.866;2022-09-27T01:23:40;0.90;;;0.90;;
18290;SDS011;9271;48.590;8.866;2022-09-27T01:26:24;0.80;;;0.80;;
18290;SDS011;9271;48.590;8.866;2022-09-27T01:29:10;1.33;;;1.03;;
18290;SDS011;9271;48.590;8.866;2022-09-27T01:31:45;0.87;;;0.87;;
18290;SDS011;9271;48.590;8.866;2022-09-27T01:34:17;0.70;;;0.63;;
18290;SDS011;9271;48.590;8.866;2022-09-27T01:36:51;0.80;;;0.80;;
18290;SDS011;9271;48.590;8.866;2022-09-27T01:39:27;1.73;;;0.60;;
18290;SDS011;9271;48.590;8.866;2022-09-27T01:42:03;0.60;;;0.60;;
18290;SDS011;9271;48.590;8.866;2022-09-27T01:44:36;0.80;;;0.80;;
18290;SDS011;9271;48.590;8.866;2022-09-27T01:47:13;0.77;;;0.77;;
18290;SDS011;9271;48.590;8.866;2022-09-27T01:49:44;0.70;;;0.70;;
18290;SDS011;9271;48.590;8.866;2022-09-27T01:52:17;0.60;;;0.60;;
18290;SDS011;9271;48.590;8.866;2022-09-27T01:54:49;0.70;;;0.70;;
18290;SDS011;9271;48.590;8.866;2022-09-27T01:57:19;0.63;;;0.63;;
18290;SDS011;9271;48.590;8.866;2022-09-27T01:59:50;0.70;;;0.70;;
18290;SDS011;9271;48.590;8.866;2022-09-27T02:02:23;0.63;;;0.63;;
18290;SDS011;9271;48.590;8.866;2022-09-27T02:04:52;0.70;;;0.70;;
18290;SDS011;9271;48.590;8.866;2022-09-27T02:07:23;0.53;;;0.53;;
18290;SDS011;9271;48.590;8.866;2022-09-27T02:09:55;0.70;;;0.70;;
18290;SDS011;9271;48.590;8.866;2022-09-27T02:12:26;0.80;;;0.80;;
18290;SDS011;9271;48.590;8.866;2022-09-27T02:14:56;0.67;;;0.67;;
18290;SDS011;9271;48.590;8.866;2022-09-27T02:17:30;0.70;;;0.70;;
18290;SDS011;9271;48.590;8.866;2022-09-27T02:20:07;2.40;;;0.70;;
18290;SDS011;9271;48.590;8.866;2022-09-27T02:22:38;0.60;;;0.60;;
18290;SDS011;9271;48.590;8.866;2022-09-27T02:25:11;0.70;;;0.63;;
18290;SDS011;9271;48.590;8.866;2022-09-27T02:27:46;0.80;;;0.70;;
18290;SDS011;9271;48.590;8.866;2022-09-27T02:30:17;1.03;;;0.60;;
18290;SDS011;9271;48.590;8.866;2022-09-27T02:32:46;0.70;;;0.70;;
18290;SDS011;9271;48.590;8.866;2022-09-27T02:35:14;0.60;;;0.60;;
18290;SDS011;9271;48.590;8.866;2022-09-27T02:37:43;0.93;;;0.53;;
18290;SDS011;9271;48.590;8.866;2022-09-27T02:40:10;1.70;;;0.40;;
18290;SDS011;9271;48.590;8.866;2022-09-27T02:42:37;0.43;;;0.43;;
18290;SDS011;9271;48.590;8.866;2022-09-27T02:45:08;0.63;;;0.53;;
18290;SDS011;9271;48.590;8.866;2022-09-27T02:47:42;0.50;;;0.50;;
18290;SDS011;9271;48.590;8.866;2022-09-27T02:50:27;0.50;;;0.50;;
18290;SDS011;9271;48.590;8.866;2022-09-27T02:53:10;0.50;;;0.50;;
18290;SDS011;9271;48.590;8.866;2022-09-27T02:55:48;1.70;;;0.60;;
18290;SDS011;9271;48.590;8.866;2022-09-27T02:58:22;0.67;;;0.50;;
18290;SDS011;9271;48.590;8.866;2022-09-27T03:00:58;1.60;;;0.70;;
18290;SDS011;9271;48.590;8.866;2022-09-27T03:03:32;0.73;;;0.73;;
18290;SDS011;9271;48.590;8.866;2022-09-27T03:06:05;0.87;;;0.87;;
18290;SDS011;9271;48.590;8.866;2022-09-27T03:08:35;2.10;;;0.97;;
18290;SDS011;9271;48.590;8.866;2022-09-27T03:11:02;2.57;;;1.00;;
18290;SDS011;9271;48.590;8.866;2022-09-27T03:13:29;1.80;;;1.13;;
18290;SDS011;9271;48.590;8.866;2022-09-27T03:15:58;2.03;;;1.30;;
18290;SDS011;9271;48.590;8.866;2022-09-27T03:18:25;2.43;;;1.33;;
18290;SDS011;9271;48.590;8.866;2022-09-27T03:20:53;2.50;;;1.40;;
18290;SDS011;9271;48.590;8.866;2022-09-27T03:23:20;3.17;;;1.30;;
18290;SDS011;9271;48.590;8.866;2022-09-27T03:25:46;1.40;;;1.07;;
18290;SDS011;9271;48.590;8.866;2022-09-27T03:28:13;2.63;;;1.10;;
18290;SDS011;9271;48.590;8.866;2022-09-27T03:30:40;2.27;;;1.20;;
18290;SDS011;9271;48.590;8.866;2022-09-27T03:33:09;3.57;;;1.43;;
18290;SDS011;9271;48.590;8.866;2022-09-27T03:35:36;3.33;;;1.30;;
18290;SDS011;9271;48.590;8.866;2022-09-27T03:38:04;2.93;;;1.50;;
18290;SDS011;9271;48.590;8.866;2022-09-27T03:40:31;2.07;;;1.40;;
18290;SDS011;9271;48.590;8.866;2022-09-27T03:42:58;5.47;;;1.93;;
18290;SDS011;9271;48.590;8.866;2022-09-27T03:45:25;3.73;;;1.60;;
18290;SDS011;9271;48.590;8.866;2022-09-27T03:47:52;4.33;;;2.20;;
18290;SDS011;9271;48.590;8.866;2022-09-27T03:50:19;6.00;;;1.70;;
18290;SDS011;9271;48.590;8.866;2022-09-27T03:52:45;4.63;;;1.90;;
18290;SDS011;9271;48.590;8.866;2022-09-27T03:55:13;2.43;;;1.53;;
18290;SDS011;9271;48.590;8.866;2022-09-27T03:57:42;4.83;;;2.20;;
18290;SDS011;9271;48.590;8.866;2022-09-27T04:00:10;4.30;;;1.90;;
18290;SDS011;9271;48.590;8.866;2022-09-27T04:02:38;5.83;;;1.87;;
18290;SDS011;9271;48.590;8.866;2022-09-27T04:05:05;3.80;;;1.90;;
18290;SDS011;9271;48.590;8.866;2022-09-27T04:07:32;4.33;;;1.87;;
18290;SDS011;9271;48.590;8.866;2022-09-27T04:09:59;3.57;;;1.50;;
18290;SDS011;9271;48.590;8.866;2022-09-27T04:12:27;3.57;;;1.77;;
18290;SDS011;9271;48.590;8.866;2022-09-27T04:14:54;3.50;;;1.67;;
18290;SDS011;9271;48.590;8.866;2022-09-27T04:17:20;3.17;;;2.30;;
18290;SDS011;9271;48.590;8.866;2022-09-27T04:19:49;4.87;;;2.20;;
18290;SDS011;9271;48.590;8.866;2022-09-27T04:22:15;4.10;;;2.10;;
18290;SDS011;9271;48.590;8.866;2022-09-27T04:24:42;3.23;;;1.30;;
18290;SDS011;9271;48.590;8.866;2022-09-27T04:27:09;2.17;;;1.40;;
18290;SDS011;9271;48.590;8.866;2022-09-27T04:29:37;2.37;;;1.30;;
18290;SDS011;9271;48.590;8.866;2022-09-27T04:32:07;3.30;;;1.33;;
18290;SDS011;9271;48.590;8.866;2022-09-27T04:34:33;2.90;;;1.20;;
18290;SDS011;9271;48.590;8.866;2022-09-27T04:37:17;1.73;;;1.20;;
18290;SDS011;9271;48.590;8.866;2022-09-27T04:39:44;1.23;;;1.10;;
18290;SDS011;9271;48.590;8.866;2022-09-27T04:42:13;2.67;;;1.20;;
18290;SDS011;9271;48.590;8.866;2022-09-27T04:44:41;4.00;;;1.40;;
18290;SDS011;9271;48.590;8.866;2022-09-27T04:47:07;1.53;;;1.20;;
18290;SDS011;9271;48.590;8.866;2022-09-27T04:49:34;1.73;;;1.47;;
18290;SDS011;9271;48.590;8.866;2022-09-27T04:52:02;3.27;;;1.50;;
18290;SDS011;9271;48.590;8.866;2022-09-27T04:54:30;4.03;;;1.77;;
18290;SDS011;9271;48.590;8.866;2022-09-27T04:56:56;3.13;;;1.50;;
18290;SDS011;9271;48.590;8.866;2022-09-27T04:59:23;1.87;;;1.30;;
18290;SDS011;9271;48.590;8.866;2022-09-27T05:01:52;2.03;;;1.73;;
18290;SDS011;9271;48.590;8.866;2022-09-27T05:04:19;3.43;;;1.60;;
18290;SDS011;9271;48.590;8.866;2022-09-27T05:06:47;2.13;;;1.20;;
18290;SDS011;9271;48.590;8.866;2022-09-27T05:09:14;4.83;;;2.00;;
18290;SDS011;9271;48.590;8.866;2022-09-27T05:11:40;2.67;;;1.60;;
18290;SDS011;9271;48.590;8.866;2022-09-27T05:14:07;1.33;;;1.23;;
18290;SDS011;9271;48.590;8.866;2022-09-27T05:16:34;1.53;;;1.43;;
18290;SDS011;9271;48.590;8.866;2022-09-27T05:19:02;2.10;;;1.20;;
18290;SDS011;9271;48.590;8.866;2022-09-27T05:21:29;1.87;;;1.40;;
18290;SDS011;9271;48.590;8.866;2022-09-27T05:23:56;2.77;;;1.50;;
18290;SDS011;9271;48.590;8.866;2022-09-27T05:26:25;1.20;;;1.10;;
18290;SDS011;9271;48.590;8.866;2022-09-27T05:28:51;1.93;;;1.30;;
18290;SDS011;9271;48.590;8.866;2022-09-27T05:31:18;4.47;;;2.13;;
18290;SDS011;9271;48.590;8.866;2022-09-27T05:33:45;3.57;;;1.70;;
18290;SDS011;9271;48.590;8.866;2022-09-27T05:36:13;2.37;;;1.67;;
18290;SDS011;9271;48.590;8.866;2022-09-27T05:38:40;3.40;;;1.50;;
18290;SDS011;9271;48.590;8.866;2022-09-27T05:41:07;4.97;;;1.60;;
18290;SDS011;9271;48.590;8.866;2022-09-27T05:43:34;2.70;;;1.67;;
18290;SDS011;9271;48.590;8.866;2022-09-27T05:46:01;2.63;;;1.90;;
18290;SDS011;9271;48.590;8.866;2022-09-27T05:48:29;2.10;;;1.70;;
18290;SDS011;9271;48.590;8.866;2022-09-27T05:50:56;3.07;;;1.50;;
18290;SDS011;9271;48.590;8.866;2022-09-27T05:53:24;1.30;;;1.20;;
18290;SDS011;9271;48.590;8.866;2022-09-27T05:55:51;3.90;;;1.30;;
18290;SDS011;9271;48.590;8.866;2022-09-27T05:58:18;1.37;;;1.10;;
18290;SDS011;9271;48.590;8.866;2022-09-27T06:00:44;2.07;;;1.10;;
18290;SDS011;9271;48.590;8.866;2022-09-27T06:03:11;3.13;;;1.67;;
18290;SDS011;9271;48.590;8.866;2022-09-27T06:05:39;4.80;;;1.57;;
18290;SDS011;9271;48.590;8.866;2022-09-27T06:08:06;1.40;;;1.20;;
18290;SDS011;9271;48.590;8.866;2022-09-27T06:10:36;1.37;;;1.10;;
18290;SDS011;9271;48.590;8.866;2022-09-27T06:13:04;1.50;;;1.40;;
18290;SDS011;9271;48.590;8.866;2022-09-27T06:15:32;1.33;;;1.10;;
18290;SDS011;9271;48.590;8.866;2022-09-27T06:18:01;1.63;;;1.10;;
18290;SDS011;9271;48.590;8.866;2022-09-27T06:20:30;0.90;;;0.90;;
18290;SDS011;9271;48.590;8.866;2022-09-27T06:23:02;1.13;;;0.90;;
18290;SDS011;9271;48.590;8.866;2022-09-27T06:25:29;1.63;;;1.10;;
18290;SDS011;9271;48.590;8.866;2022-09-27T06:27:58;0.57;;;0.57;;
18290;SDS011;9271;48.590;8.866;2022-09-27T06:30:24;0.50;;;0.50;;
18290;SDS011;9271;48.590;8.866;2022-09-27T06:32:54;0.83;;;0.53;;
18290;SDS011;9271;48.590;8.866;2022-09-27T06:35:22;0.50;;;0.50;;
18290;SDS011;9271;48.590;8.866;2022-09-27T06:37:49;0.87;;;0.50;;
18290;SDS011;9271;48.590;8.866;2022-09-27T06:40:16;0.43;;;0.40;;
18290;SDS011;9271;48.590;8.866;2022-09-27T06:42:43;0.63;;;0.63;;
18290;SDS011;9271;48.590;8.866;2022-09-27T06:45:11;0.60;;;0.60;;
18290;SDS011;9271;48.590;8.866;2022-09-27T06:47:38;0.50;;;0.50;;
18290;SDS011;9271;48.590;8.866;2022-09-27T06:50:05;0.40;;;0.40;;
18290;SDS011;9271;48.590;8.866;2022-09-27T06:52:32;0.50;;;0.40;;
18290;SDS011;9271;48.590;8.866;2022-09-27T06:54:59;0.40;;;0.40;;
18290;SDS011;9271;48.590;8.866;2022-09-27T06:57:26;1.00;;;0.60;;
18290;SDS011;9271;48.590;8.866;2022-09-27T07:00:12;1.07;;;0.53;;
18290;SDS011;9271;48.590;8.866;2022-09-27T07:02:48;0.93;;;0.50;;
18290;SDS011;9271;48.590;8.866;2022-09-27T07:05:15;1.13;;;0.50;;
18290;SDS011;9271;48.590;8.866;2022-09-27T07:07:42;1.47;;;0.50;;
18290;SDS011;9271;48.590;8.866;2022-09-27T07:10:09;0.50;;;0.50;;
18290;SDS011;9271;48.590;8.866;2022-09-27T07:12:36;0.50;;;0.50;;
18290;SDS011;9271;48.590;8.866;2022-09-27T07:15:04;0.50;;;0.50;;
18290;SDS011;9271;48.590;8.866;2022-09-27T07:17:32;0.40;;;0.40;;
18290;SDS011;9271;48.590;8.866;2022-09-27T07:20:00;0.30;;;0.30;;
18290;SDS011;9271;48.590;8.866;2022-09-27T07:22:27;0.37;;;0.37;;
18290;SDS011;9271;48.590;8.866;2022-09-27T07:24:55;0.50;;;0.50;;
18290;SDS011;9271;48.590;8.866;2022-09-27T07:27:21;0.53;;;0.40;;
18290;SDS011;9271;48.590;8.866;2022-09-27T07:29:50;1.40;;;0.43;;
18290;SDS011;9271;48.590;8.866;2022-09-27T07:32:17;1.23;;;0.50;;
18290;SDS011;9271;48.590;8.866;2022-09-27T07:34:45;0.93;;;0.47;;
18290;SDS011;9271;48.590;8.866;2022-09-27T07:37:12;0.50;;;0.50;;
18290;SDS011;9271;48.590;8.866;2022-09-27T07:39:38;0.40;;;0.40;;
18290;SDS011;9271;48.590;8.866;2022-09-27T07:42:05;0.43;;;0.43;;
18290;SDS011;9271;48.590;8.866;2022-09-27T07:44:32;0.60;;;0.57;;
18290;SDS011;9271;48.590;8.866;2022-09-27T07:46:58;0.50;;;0.50;;
18290;SDS011;9271;48.590;8.866;2022-09-27T07:49:25;0.50;;;0.40;;
18290;SDS011;9271;48.590;8.866;2022-09-27T07:51:53;0.93;;;0.40;;
18290;SDS011;9271;48.590;8.866;2022-09-27T07:54:20;0.43;;;0.43;;
18290;SDS011;9271;48.590;8.866;2022-09-27T07:56:47;0.70;;;0.70;;
18290;SDS011;9271;48.590;8.866;2022-09-27T07:59:14;0.50;;;0.50;;
18290;SDS011;9271;48.590;8.866;2022-09-27T08:01:41;0.40;;;0.40;;
18290;SDS011;9271;48.590;8.866;2022-09-27T08:04:07;0.60;;;0.60;;
18290;SDS011;9271;48.590;8.866;2022-09-27T08:06:34;2.43;;;0.70;;
18290;SDS011;9271;48.590;8.866;2022-09-27T08:09:05;0.77;;;0.53;;
18290;SDS011;9271;48.590;8.866;2022-09-27T08:11:34;0.53;;;0.53;;
18290;SDS011;9271;48.590;8.866;2022-09-27T08:14:01;0.50;;;0.50;;
18290;SDS011;9271;48.590;8.866;2022-09-27T08:16:29;1.03;;;0.60;;
18290;SDS011;9271;48.590;8.866;2022-09-27T08:18:58;0.50;;;0.50;;
18290;SDS011;9271;48.590;8.866;2022-09-27T08:21:24;0.73;;;0.73;;
18290;SDS011;9271;48.590;8.866;2022-09-27T08:23:51;1.40;;;0.80;;
18290;SDS011;9271;48.590;8.866;2022-09-27T08:26:20;1.40;;;1.30;;
18290;SDS011;9271;48.590;8.866;2022-09-27T08:28:47;1.70;;;1.60;;
18290;SDS011;9271;48.590;8.866;2022-09-27T08:31:13;1.10;;;1.00;;
18290;SDS011;9271;48.590;8.866;2022-09-27T08:33:40;1.00;;;0.90;;
18290;SDS011;9271;48.590;8.866;2022-09-27T08:36:09;0.70;;;0.70;;
18290;SDS011;9271;48.590;8.866;2022-09-27T08:38:36;1.30;;;0.40;;
18290;SDS011;9271;48.590;8.866;2022-09-27T08:41:05;0.90;;;0.50;;
18290;SDS011;9271;48.590;8.866;2022-09-27T08:43:40;1.47;;;0.70;;
18290;SDS011;9271;48.590;8.866;2022-09-27T08:46:16;0.57;;;0.57;;
18290;SDS011;9271;48.590;8.866;2022-09-27T08:48:53;0.50;;;0.50;;
18290;SDS011;9271;48.590;8.866;2022-09-27T08:51:27;0.97;;;0.43;;
18290;SDS011;9271;48.590;8.866;2022-09-27T08:53:56;1.63;;;0.70;;
18290;SDS011;9271;48.590;8.866;2022-09-27T08:56:28;0.40;;;0.40;;
18290;SDS011;9271;48.590;8.866;2022-09-27T08:58:59;0.83;;;0.60;;
18290;SDS011;9271;48.590;8.866;2022-09-27T09:01:29;0.50;;;0.50;;
18290;SDS011;9271;48.590;8.866;2022-09-27T09:03:57;0.50;;;0.50;;
18290;SDS011;9271;48.590;8.866;2022-09-27T09:06:29;0.53;;;0.53;;
18290;SDS011;9271;48.590;8.866;2022-09-27T09:09:04;0.50;;;0.50;;
18290;SDS011;9271;48.590;8.866;2022-09-27T09:11:47;0.70;;;0.70;;
18290;SDS011;9271;48.590;8.866;2022-09-27T09:14:54;0.90;;;0.90;;
18290;SDS011;9271;48.590;8.866;2022-09-27T09:17:36;0.67;;;0.67;;
18290;SDS011;9271;48.590;8.866;2022-09-27T09:20:18;1.10;;;1.10;;
18290;SDS011;9271;48.590;8.866;2022-09-27T09:23:12;0.77;;;0.77;;
18290;SDS011;9271;48.590;8.866;2022-09-27T09:25:51;4.13;;;0.70;;
18290;SDS011;9271;48.590;8.866;2022-09-27T09:28:27;0.83;;;0.50;;
18290;SDS011;9271;48.590;8.866;2022-09-27T09:31:06;1.30;;;0.60;;
18290;SDS011;9271;48.590;8.866;2022-09-27T09:33:38;0.60;;;0.60;;
18290;SDS011;9271;48.590;8.866;2022-09-27T09:36:12;1.40;;;1.30;;
18290;SDS011;9271;48.590;8.866;2022-09-27T09:38:49;3.23;;;1.83;;
18290;SDS011;9271;48.590;8.866;2022-09-27T09:41:19;0.70;;;0.70;;
18290;SDS011;9271;48.590;8.866;2022-09-27T09:43:51;3.70;;;3.40;;
18290;SDS011;9271;48.590;8.866;2022-09-27T09:46:27;3.80;;;3.30;;
18290;SDS011;9271;48.590;8.866;2022-09-27T09:49:02;7.03;;;3.73;;
18290;SDS011;9271;48.590;8.866;2022-09-27T09:51:38;2.63;;;1.43;;
18290;SDS011;9271;48.590;8.866;2022-09-27T09:54:12;3.67;;;1.07;;
18290;SDS011;9271;48.590;8.866;2022-09-27T09:56:46;2.77;;;1.30;;
18290;SDS011;9271;48.590;8.866;2022-09-27T09:59:17;1.20;;;1.10;;
18290;SDS011;9271;48.590;8.866;2022-09-27T10:01:52;3.03;;;1.20;;
18290;SDS011;9271;48.590;8.866;2022-09-27T10:04:22;3.13;;;1.90;;
18290;SDS011;9271;48.590;8.866;2022-09-27T10:06:51;1.07;;;0.93;;
18290;SDS011;9271;48.590;8.866;2022-09-27T10:09:21;2.00;;;1.10;;
18290;SDS011;9271;48.590;8.866;2022-09-27T10:11:49;1.00;;;0.90;;
18290;SDS011;9271;48.590;8.866;2022-09-27T10:14:17;1.67;;;1.13;;
18290;SDS011;9271;48.590;8.866;2022-09-27T10:16:46;2.53;;;1.07;;
18290;SDS011;9271;48.590;8.866;2022-09-27T10:19:17;1.63;;;1.40;;
18290;SDS011;9271;48.590;8.866;2022-09-27T10:21:50;2.60;;;1.80;;
18290;SDS011;9271;48.590;8.866;2022-09-27T10:24:18;1.47;;;1.17;;
18290;SDS011;9271;48.590;8.866;2022-09-27T10:26:45;2.93;;;1.33;;
18290;SDS011;9271;48.590;8.866;2022-09-27T10:29:24;2.13;;;1.20;;
18290;SDS011;9271;48.590;8.866;2022-09-27T10:31:56;2.43;;;2.00;;
18290;SDS011;9271;48.590;8.866;2022-09-27T10:34:27;1.43;;;1.03;;
18290;SDS011;9271;48.590;8.866;2022-09-27T10:37:00;1.20;;;1.03;;
18290;SDS011;9271;48.590;8.866;2022-09-27T10:39:32;1.80;;;1.07;;
18290;SDS011;9271;48.590;8.866;2022-09-27T10:41:59;1.33;;;1.00;;
18290;SDS011;9271;48.590;8.866;2022-09-27T10:44:26;2.97;;;1.07;;
18290;SDS011;9271;48.590;8.866;2022-09-27T10:46:57;2.63;;;1.50;;
18290;SDS011;9271;48.590;8.866;2022-09-27T10:49:28;2.00;;;1.10;;
18290;SDS011;9271;48.590;8.866;2022-09-27T10:51:57;1.10;;;1.10;;
18290;SDS011;9271;48.590;8.866;2022-09-27T10:54:26;3.60;;;1.37;;
18290;SDS011;9271;48.590;8.866;2022-09-27T10:56:58;1.63;;;1.27;;
18290;SDS011;9271;48.590;8.866;2022-09-27T10:59:28;1.30;;;0.97;;
18290;SDS011;9271;48.590;8.866;2022-09-27T11:01:59;1.57;;;0.90;;
18290;SDS011;9271;48.590;8.866;2022-09-27T11:04:29;1.40;;;1.10;;
18290;SDS011;9271;48.590;8.866;2022-09-27T11:07:13;2.37;;;1.17;;
18290;SDS011;9271;48.590;8.866;2022-09-27T11:09:46;1.30;;;1.00;;
18290;SDS011;9271;48.590;8.866;2022-09-27T11:12:15;1.57;;;1.43;;
18290;SDS011;9271;48.590;8.866;2022-09-27T11:14:50;1.87;;;1.20;;
18290;SDS011;9271;48.590;8.866;2022-09-27T11:17:23;1.10;;;1.10;;
18290;SDS011;9271;48.590;8.866;2022-09-27T11:20:00;1.20;;;1.10;;
18290;SDS011;9271;48.590;8.866;2022-09-27T11:23:03;1.33;;;0.90;;
18290;SDS011;9271;48.590;8.866;2022-09-27T11:25:43;2.67;;;1.00;;
18290;SDS011;9271;48.590;8.866;2022-09-27T11:28:24;3.40;;;1.40;;
18290;SDS011;9271;48.590;8.866;2022-09-27T11:30:58;1.10;;;1.10;;
18290;SDS011;9271;48.590;8.866;2022-09-27T11:33:38;1.90;;;1.10;;
18290;SDS011;9271;48.590;8.866;2022-09-27T11:36:16;3.57;;;1.40;;
18290;SDS011;9271;48.590;8.866;2022-09-27T11:38:55;1.83;;;1.17;;
18290;SDS011;9271;48.590;8.866;2022-09-27T11:41:35;5.43;;;1.50;;
18290;SDS011;9271;48.590;8.866;2022-09-27T11:44:14;1.80;;;1.13;;
18290;SDS011;9271;48.590;8.866;2022-09-27T11:47:03;2.40;;;1.00;;
18290;SDS011;9271;48.590;8.866;2022-09-27T11:52:46;3.10;;;1.67;;
18290;SDS011;9271;48.590;8.866;2022-09-27T11:55:29;2.67;;;1.40;;
18290;SDS011;9271;48.590;8.866;2022-09-27T11:58:07;1.60;;;1.00;;
18290;SDS011;9271;48.590;8.866;2022-09-27T12:00:43;4.07;;;1.30;;
18290;SDS011;9271;48.590;8.866;2022-09-27T12:03:28;1.63;;;1.17;;
18290;SDS011;9271;48.590;8.866;2022-09-27T12:06:11;2.03;;;1.30;;
18290;SDS011;9271;48.590;8.866;2022-09-27T12:11:28;2.83;;;1.10;;
18290;SDS011;9271;48.590;8.866;2022-09-27T12:14:02;1.20;;;1.00;;
18290;SDS011;9271;48.590;8.866;2022-09-27T12:16:32;1.17;;;0.90;;
18290;SDS011;9271;48.590;8.866;2022-09-27T12:19:02;1.70;;;1.00;;
18290;SDS011;9271;48.590;8.866;2022-09-27T12:21:34;2.60;;;1.17;;
18290;SDS011;9271;48.590;8.866;2022-09-27T12:24:02;1.13;;;1.03;;
18290;SDS011;9271;48.590;8.866;2022-09-27T12:26:32;1.47;;;1.10;;
18290;SDS011;9271;48.590;8.866;2022-09-27T12:29:04;1.20;;;0.90;;
18290;SDS011;9271;48.590;8.866;2022-09-27T12:31:39;0.90;;;0.80;;
18290;SDS011;9271;48.590;8.866;2022-09-27T12:34:13;0.60;;;0.60;;
18290;SDS011;9271;48.590;8.866;2022-09-27T12:36:43;0.80;;;0.80;;
18290;SDS011;9271;48.590;8.866;2022-09-27T12:39:16;0.77;;;0.77;;
18290;SDS011;9271;48.590;8.866;2022-09-27T12:41:48;3.67;;;1.10;;
18290;SDS011;9271;48.590;8.866;2022-09-27T12:44:25;1.10;;;1.00;;
18290;SDS011;9271;48.590;8.866;2022-09-27T12:46:55;3.20;;;1.30;;
18290;SDS011;9271;48.590;8.866;2022-09-27T12:49:31;0.70;;;0.70;;
18290;SDS011;9271;48.590;8.866;2022-09-27T12:52:08;0.77;;;0.77;;
18290;SDS011;9271;48.590;8.866;2022-09-27T12:54:48;1.07;;;0.97;;
18290;SDS011;9271;48.590;8.866;2022-09-27T12:57:33;0.90;;;0.90;;
18290;SDS011;9271;48.590;8.866;2022-09-27T13:00:11;1.23;;;0.80;;
18290;SDS011;9271;48.590;8.866;2022-09-27T13:03:03;0.60;;;0.60;;
18290;SDS011;9271;48.590;8.866;2022-09-27T13:08:59;0.70;;;0.70;;
18290;SDS011;9271;48.590;8.866;2022-09-27T13:11:58;1.77;;;1.50;;
18290;SDS011;9271;48.590;8.866;2022-09-27T13:14:38;1.33;;;1.00;;
18290;SDS011;9271;48.590;8.866;2022-09-27T13:23:04;0.60;;;0.50;;
18290;SDS011;9271;48.590;8.866;2022-09-27T13:26:46;0.70;;;0.70;;
18290;SDS011;9271;48.590;8.866;2022-09-27T13:29:28;0.63;;;0.63;;
18290;SDS011;9271;48.590;8.866;2022-09-27T13:32:01;1.67;;;0.50;;
18290;SDS011;9271;48.590;8.866;2022-09-27T13:34:47;0.70;;;0.70;;
18290;SDS011;9271;48.590;8.866;2022-09-27T13:37:25;1.90;;;0.80;;
18290;SDS011;9271;48.590;8.866;2022-09-27T13:40:22;4.73;;;0.70;;
18290;SDS011;9271;48.590;8.866;2022-09-27T13:45:49;0.60;;;0.60;;
18290;SDS011;9271;48.590;8.866;2022-09-27T13:48:21;3.07;;;0.77;;
18290;SDS011;9271;48.590;8.866;2022-09-27T13:50:52;1.50;;;0.83;;
18290;SDS011;9271;48.590;8.866;2022-09-27T13:53:25;2.53;;;0.80;;
18290;SDS011;9271;48.590;8.866;2022-09-27T13:55:55;3.57;;;0.67;;
18290;SDS011;9271;48.590;8.866;2022-09-27T13:58:36;2.17;;;0.77;;
18290;SDS011;9271;48.590;8.866;2022-09-27T14:01:14;0.93;;;0.60;;
18290;SDS011;9271;48.590;8.866;2022-09-27T14:03:45;4.53;;;1.20;;
18290;SDS011;9271;48.590;8.866;2022-09-27T14:06:14;0.70;;;0.60;;
18290;SDS011;9271;48.590;8.866;2022-09-27T14:08:44;0.90;;;0.70;;
18290;SDS011;9271;48.590;8.866;2022-09-27T14:11:14;4.73;;;1.00;;
18290;SDS011;9271;48.590;8.866;2022-09-27T14:13:47;1.77;;;0.90;;
18290;SDS011;9271;48.590;8.866;2022-09-27T14:16:16;0.60;;;0.60;;
18290;SDS011;9271;48.590;8.866;2022-09-27T14:18:45;0.60;;;0.60;;
18290;SDS011;9271;48.590;8.866;2022-09-27T14:21:16;0.57;;;0.57;;
18290;SDS011;9271;48.590;8.866;2022-09-27T14:23:50;0.67;;;0.67;;
18290;SDS011;9271;48.590;8.866;2022-09-27T14:26:20;1.87;;;0.60;;
18290;SDS011;9271;48.590;8.866;2022-09-27T14:28:49;1.70;;;0.50;;
18290;SDS011;9271;48.590;8.866;2022-09-27T14:31:18;1.90;;;0.60;;
18290;SDS011;9271;48.590;8.866;2022-09-27T14:33:47;1.93;;;0.47;;
18290;SDS011;9271;48.590;8.866;2022-09-27T14:36:24;2.60;;;0.67;;
18290;SDS011;9271;48.590;8.866;2022-09-27T14:39:13;0.60;;;0.60;;
18290;SDS011;9271;48.590;8.866;2022-09-27T14:41:41;0.60;;;0.60;;
18290;SDS011;9271;48.590;8.866;2022-09-27T14:44:11;3.97;;;0.60;;
18290;SDS011;9271;48.590;8.866;2022-09-27T14:46:41;0.60;;;0.60;;
18290;SDS011;9271;48.590;8.866;2022-09-27T14:49:17;0.93;;;0.63;;
18290;SDS011;9271;48.590;8.866;2022-09-27T14:51:49;1.37;;;0.90;;
18290;SDS011;9271;48.590;8.866;2022-09-27T14:54:20;0.50;;;0.50;;
18290;SDS011;9271;48.590;8.866;2022-09-27T14:56:50;4.43;;;0.77;;
18290;SDS011;9271;48.590;8.866;2022-09-27T14:59:20;2.37;;;1.80;;
18290;SDS011;9271;48.590;8.866;2022-09-27T15:01:56;3.20;;;2.23;;
18290;SDS011;9271;48.590;8.866;2022-09-27T15:04:25;2.83;;;1.40;;
18290;SDS011;9271;48.590;8.866;2022-09-27T15:06:54;1.00;;;0.90;;
18290;SDS011;9271;48.590;8.866;2022-09-27T15:09:22;1.03;;;0.87;;
18290;SDS011;9271;48.590;8.866;2022-09-27T15:11:52;1.03;;;0.60;;
18290;SDS011;9271;48.590;8.866;2022-09-27T15:14:20;0.73;;;0.73;;
18290;SDS011;9271;48.590;8.866;2022-09-27T15:16:49;1.07;;;0.90;;
18290;SDS011;9271;48.590;8.866;2022-09-27T15:19:21;1.07;;;0.70;;
18290;SDS011;9271;48.590;8.866;2022-09-27T15:21:49;3.87;;;0.77;;
18290;SDS011;9271;48.590;8.866;2022-09-27T15:24:35;0.53;;;0.53;;
18290;SDS011;9271;48.590;8.866;2022-09-27T15:27:03;0.60;;;0.60;;
18290;SDS011;9271;48.590;8.866;2022-09-27T15:29:38;2.63;;;1.90;;
18290;SDS011;9271;48.590;8.866;2022-09-27T15:32:05;2.23;;;0.73;;
18290;SDS011;9271;48.590;8.866;2022-09-27T15:34:34;1.27;;;0.70;;
18290;SDS011;9271;48.590;8.866;2022-09-27T15:37:02;2.40;;;0.70;;
18290;SDS011;9271;48.590;8.866;2022-09-27T15:39:31;0.50;;;0.50;;
18290;SDS011;9271;48.590;8.866;2022-09-27T15:42:00;2.03;;;0.73;;
18290;SDS011;9271;48.590;8.866;2022-09-27T15:44:42;4.73;;;0.73;;